createdAt,value
2022-08-17T00:00:16.575Z,4.963976
2022-08-17T00:05:46.551Z,5.298478
2022-08-17T00:10:48.622Z,5.127544
2022-08-17T00:15:50.496Z,4.819378
2022-08-17T00:20:52.135Z,5.016776
2022-08-17T00:25:53.595Z,4.71096
2022-08-17T00:30:55.110Z,4.686398
2022-08-17T00:35:57.086Z,5.007794
2022-08-17T00:40:59.061Z,4.838934
2022-08-17T00:46:00.880Z,4.507664
2022-08-17T00:51:02.396Z,4.625784
2022-08-17T00:56:03.871Z,4.6074
2022-08-17T01:01:05.437Z,4.709482
2022-08-17T01:06:07.204Z,4.51841
2022-08-17T01:11:08.778Z,4.688586
2022-08-17T01:16:10.217Z,4.45044
2022-08-17T01:21:11.671Z,4.573856
2022-08-17T01:26:13.294Z,4.387342
2022-08-17T01:31:14.813Z,4.303782
2022-08-17T01:36:16.616Z,4.005918
2022-08-17T01:41:18.044Z,4.177286
2022-08-17T01:46:19.592Z,3.640084
2022-08-17T01:51:21.584Z,4.23892
2022-08-17T01:56:23.149Z,3.67554
2022-08-17T02:01:24.721Z,3.896618
2022-08-17T02:06:28.157Z,2.762368
2022-08-17T02:11:30.254Z,2.99772
2022-08-17T02:16:37.441Z,3.35104
2022-08-17T02:21:39.932Z,3.720688
2022-08-17T02:26:41.494Z,4.082846
2022-08-17T02:31:43.017Z,3.530646
2022-08-17T02:36:44.781Z,3.704078
2022-08-17T02:41:46.193Z,3.941924
2022-08-17T02:46:47.874Z,3.657304
2022-08-17T02:51:49.619Z,3.49785
2022-08-17T02:56:51.198Z,3.633462
2022-08-17T03:01:52.799Z,3.33781
2022-08-17T03:06:54.666Z,3.21939
2022-08-17T03:11:56.144Z,3.27793
2022-08-17T03:16:57.732Z,3.140254
2022-08-17T03:21:59.315Z,3.798808
2022-08-17T03:27:00.892Z,2.72398
2022-08-17T03:32:02.372Z,3.211304
2022-08-17T03:37:04.208Z,3.129222
2022-08-17T03:42:05.743Z,2.985806
2022-08-17T03:47:07.597Z,2.867396
2022-08-17T03:52:09.746Z,3.398996
2022-08-17T03:57:11.348Z,3.347664
2022-08-17T04:02:13.239Z,3.27926
2022-08-17T04:07:15.357Z,3.5811
2022-08-17T04:12:17.284Z,3.307064
2022-08-17T04:17:19.002Z,3.291622
2022-08-17T04:22:30.847Z,2.85931
2022-08-17T04:27:35.642Z,3.083764
2022-08-17T04:33:04.698Z,3.018602
2022-08-17T04:38:09.523Z,2.873274
2022-08-17T04:43:11.392Z,2.815168
2022-08-17T04:48:13.437Z,3.219242
2022-08-17T04:53:15.112Z,2.882838
2022-08-17T04:58:16.881Z,3.780558
2022-08-17T05:03:18.825Z,3.00111
2022-08-17T05:08:20.918Z,3.692302
2022-08-17T05:13:22.838Z,3.013458
2022-08-17T05:18:24.815Z,3.554626
2022-08-17T05:23:26.853Z,3.708922
2022-08-17T05:28:37.006Z,4.31746
2022-08-17T05:33:44.305Z,4.498992
2022-08-17T05:38:47.793Z,5.229478
2022-08-17T05:43:51.877Z,5.967334
2022-08-17T05:48:57.631Z,6.86052
2022-08-17T05:53:59.388Z,6.947322
2022-08-17T05:59:01.168Z,7.627372
2022-08-17T06:04:03.000Z,7.655934
2022-08-17T06:09:05.936Z,8.524438
2022-08-17T06:14:07.995Z,8.658586
2022-08-17T06:19:09.889Z,9.01682
2022-08-17T06:24:11.879Z,9.626106
2022-08-17T06:29:18.804Z,10.091866
2022-08-17T06:34:20.875Z,10.924194
2022-08-17T06:39:22.971Z,11.835414
2022-08-17T06:44:49.753Z,12.08493
2022-08-17T06:49:55.387Z,12.630846
2022-08-17T06:54:57.722Z,12.153062
2022-08-17T06:59:59.478Z,13.484384
2022-08-17T07:05:01.113Z,13.794814
2022-08-17T07:10:03.072Z,14.345778
2022-08-17T07:15:04.526Z,14.738738
2022-08-17T07:20:06.320Z,15.5282
2022-08-17T07:25:08.160Z,15.54789
2022-08-17T07:30:10.831Z,17.023836
2022-08-17T07:35:12.945Z,16.567926
2022-08-17T07:40:17.436Z,17.47862
2022-08-17T07:45:19.065Z,18.19512
2022-08-17T07:50:23.988Z,17.694172
2022-08-17T07:55:27.451Z,18.86775
2022-08-17T08:00:32.813Z,19.14024
2022-08-17T08:05:49.391Z,19.31697
2022-08-17T08:10:53.044Z,19.551778
2022-08-17T08:15:54.953Z,19.75904
2022-08-17T08:20:56.790Z,20.10235
2022-08-17T08:25:58.803Z,20.250964
2022-08-17T08:31:00.284Z,20.417232
2022-08-17T08:36:02.092Z,20.836084
2022-08-17T08:41:04.251Z,20.82417
2022-08-17T08:46:06.255Z,21.260242
2022-08-17T08:51:08.581Z,21.819906
2022-08-17T08:56:12.704Z,21.840396
2022-08-17T09:01:16.935Z,22.362296
2022-08-17T09:06:37.378Z,21.961084
2022-08-17T09:12:01.398Z,22.456252
2022-08-17T09:17:05.182Z,22.794148
2022-08-17T09:22:06.953Z,23.120076
2022-08-17T09:27:08.909Z,23.066286
2022-08-17T09:32:10.673Z,23.092774
2022-08-17T09:37:12.147Z,22.69376
2022-08-17T09:42:14.046Z,23.410614
2022-08-17T09:47:15.834Z,23.301298
2022-08-17T09:52:18.017Z,24.252472
2022-08-17T09:57:29.803Z,23.114404
2022-08-17T10:02:32.051Z,23.568076
2022-08-17T10:07:34.017Z,23.517122
2022-08-17T10:12:35.759Z,23.99887
2022-08-17T10:17:39.714Z,24.142328
2022-08-17T10:22:41.127Z,23.810592
2022-08-17T10:27:43.880Z,23.665628
2022-08-17T10:32:45.907Z,23.875726
2022-08-17T10:37:47.395Z,23.366364
2022-08-17T10:42:49.127Z,23.801134
2022-08-17T10:47:55.585Z,23.347394
2022-08-17T10:52:58.370Z,23.410072
2022-08-17T10:57:59.855Z,23.996278
2022-08-17T11:03:01.303Z,24.423042
2022-08-17T11:08:02.777Z,24.119762
2022-08-17T11:13:06.485Z,24.040366
2022-08-17T11:18:07.952Z,24.269
2022-08-17T11:23:09.405Z,23.692116
2022-08-17T11:28:11.294Z,24.055374
2022-08-17T11:33:12.900Z,24.577966
2022-08-17T11:38:16.456Z,24.074548
2022-08-17T11:43:19.169Z,24.00058
2022-08-17T11:48:28.277Z,24.695574
2022-08-17T11:53:30.346Z,23.934428
2022-08-17T11:58:31.892Z,24.747898
2022-08-17T12:03:33.558Z,23.664502
2022-08-17T12:08:35.297Z,24.048698
2022-08-17T12:13:39.821Z,24.636668
2022-08-17T12:18:42.162Z,23.489766
2022-08-17T12:23:44.278Z,24.166156
2022-08-17T12:28:46.063Z,24.144526
2022-08-17T12:33:47.868Z,24.040366
2022-08-17T12:38:49.489Z,24.170376
2022-08-17T12:43:51.332Z,24.18533
2022-08-17T12:48:59.201Z,24.086706
2022-08-17T12:54:01.322Z,23.804852
2022-08-17T12:59:03.180Z,23.910098
2022-08-17T13:04:05.024Z,23.838206
2022-08-17T13:09:06.769Z,23.695196
2022-08-17T13:14:08.992Z,23.933844
2022-08-17T13:19:10.957Z,24.073028
2022-08-17T13:24:13.012Z,23.669156
2022-08-17T13:29:15.110Z,23.085012
2022-08-17T13:34:16.744Z,23.377016
2022-08-17T13:39:20.227Z,23.109098
2022-08-17T13:44:22.588Z,23.108216
2022-08-17T13:49:24.489Z,23.201344
2022-08-17T13:54:43.286Z,23.339496
2022-08-17T13:59:52.886Z,22.969182
2022-08-17T14:04:56.878Z,22.799304
2022-08-17T14:09:58.835Z,22.929654
2022-08-17T14:15:00.861Z,22.706814
2022-08-17T14:20:02.512Z,22.538402
2022-08-17T14:25:04.021Z,22.133662
2022-08-17T14:30:05.921Z,22.453266
2022-08-17T14:35:07.594Z,21.899288
2022-08-17T14:40:09.294Z,21.990462
2022-08-17T14:45:32.142Z,21.949224
2022-08-17T14:50:35.503Z,21.600974
2022-08-17T14:55:37.350Z,21.6641
2022-08-17T15:00:38.984Z,20.998946
2022-08-17T15:05:40.782Z,21.217864
2022-08-17T15:10:42.357Z,20.484564
2022-08-17T15:15:44.112Z,20.57681
2022-08-17T15:20:45.852Z,20.242076
2022-08-17T15:25:47.470Z,20.128132
2022-08-17T15:30:49.017Z,19.961552
2022-08-17T15:35:50.483Z,19.387152
2022-08-17T15:40:51.916Z,19.093126
2022-08-17T15:45:59.816Z,19.032742
2022-08-17T15:51:01.988Z,19.184314
2022-08-17T15:56:03.730Z,19.084306
2022-08-17T16:01:17.028Z,18.774024
2022-08-17T16:06:21.394Z,18.556504
2022-08-17T16:11:23.153Z,18.23918
2022-08-17T16:16:24.798Z,18.140746
2022-08-17T16:21:26.612Z,18.420578
2022-08-17T16:26:28.411Z,18.13943
2022-08-17T16:31:30.302Z,17.818998
2022-08-17T16:36:31.837Z,17.650668
2022-08-17T16:41:33.884Z,17.092796
2022-08-17T16:46:35.871Z,17.34021
2022-08-17T16:51:37.641Z,17.08996
2022-08-17T16:56:39.380Z,16.579052
2022-08-17T17:01:41.361Z,16.653468
2022-08-17T17:06:42.763Z,16.395714
2022-08-17T17:11:44.439Z,16.533948
2022-08-17T17:16:46.453Z,16.301976
2022-08-17T17:21:48.006Z,16.046788
2022-08-17T17:26:49.476Z,15.804924
2022-08-17T17:31:51.272Z,15.64251
2022-08-17T17:36:52.837Z,15.885432
2022-08-17T17:41:54.373Z,15.593876
2022-08-17T17:46:56.295Z,15.338158
2022-08-17T17:52:11.126Z,15.28696
2022-08-17T17:57:14.556Z,14.898138
2022-08-17T18:02:16.627Z,15.089944
2022-08-17T18:07:18.409Z,15.013154
2022-08-17T18:12:20.191Z,15.052086
2022-08-17T18:17:22.352Z,14.687892
2022-08-17T18:22:24.224Z,14.539156
2022-08-17T18:27:25.861Z,14.368356
2022-08-17T18:32:27.617Z,14.720908
2022-08-17T18:37:29.016Z,14.367136
2022-08-17T18:42:31.011Z,14.400666
2022-08-17T18:47:33.305Z,13.893396
2022-08-17T18:52:34.854Z,14.048482
2022-08-17T18:57:36.932Z,13.90417
2022-08-17T19:02:45.583Z,13.751024
2022-08-17T19:07:47.826Z,13.649958
2022-08-17T19:12:49.339Z,13.703096
2022-08-17T19:17:51.321Z,13.658954
2022-08-17T19:22:53.318Z,14.047166
2022-08-17T19:27:57.882Z,13.769112
2022-08-17T19:33:00.141Z,13.582708
2022-08-17T19:38:01.986Z,13.69718
2022-08-17T19:43:03.774Z,13.494166
2022-08-17T19:48:05.861Z,13.468126
2022-08-17T19:53:07.726Z,12.835528
2022-08-17T19:58:09.501Z,12.745942
2022-08-17T20:03:16.405Z,13.031038
2022-08-17T20:08:18.841Z,13.019124
2022-08-17T20:13:33.497Z,12.493332
2022-08-17T20:18:36.087Z,12.91004
2022-08-17T20:23:37.529Z,12.308134
2022-08-17T20:28:39.175Z,12.13249
2022-08-17T20:33:40.871Z,11.90151
2022-08-17T20:38:42.315Z,11.738758
2022-08-17T20:43:43.718Z,11.405558
2022-08-17T20:48:45.630Z,10.908194
2022-08-17T20:53:47.564Z,10.6044
2022-08-17T20:58:49.110Z,10.732374
2022-08-17T21:03:51.865Z,10.831838
2022-08-17T21:08:53.740Z,10.738996
2022-08-17T21:13:55.819Z,10.417114
2022-08-17T21:18:57.830Z,10.353444
2022-08-17T21:23:59.303Z,10.111608
2022-08-17T21:29:01.683Z,10.979964
2022-08-17T21:34:32.739Z,10.6653
2022-08-17T21:39:34.410Z,10.774466
2022-08-17T21:44:36.223Z,10.644552
2022-08-17T21:49:38.184Z,10.548792
2022-08-17T21:54:39.934Z,10.031724
2022-08-17T21:59:41.516Z,10.23429
2022-08-17T22:04:43.145Z,10.734748
2022-08-17T22:09:44.728Z,10.46968
2022-08-17T22:14:52.606Z,9.863746
2022-08-17T22:19:55.996Z,9.848576
2022-08-17T22:24:57.848Z,10.28135
2022-08-17T22:29:59.646Z,9.839308
2022-08-17T22:35:01.566Z,9.649104
2022-08-17T22:40:03.153Z,9.512186
2022-08-17T22:45:05.008Z,9.909042
2022-08-17T22:50:06.980Z,9.934472
2022-08-17T22:55:09.146Z,10.092462
2022-08-17T23:00:11.843Z,9.643922
2022-08-17T23:05:14.355Z,10.143822
2022-08-17T23:10:16.145Z,10.024668
2022-08-17T23:15:17.980Z,10.053192
2022-08-17T23:20:20.117Z,9.743386
2022-08-17T23:25:21.765Z,9.828996
2022-08-17T23:30:23.560Z,9.706586
2022-08-17T23:35:39.082Z,9.948598
2022-08-17T23:40:42.194Z,10.171736
2022-08-17T23:45:43.663Z,9.523166
2022-08-17T23:50:45.768Z,9.391936
2022-08-17T23:55:47.536Z,9.70394
